createdAt,value
2018-06-18T00:00:06.464Z,15.40
2018-06-18T00:02:34.229Z,15.63
2018-06-18T00:05:01.999Z,14.57
2018-06-18T00:07:29.813Z,15.37
2018-06-18T00:09:57.569Z,15.13
2018-06-18T00:12:25.367Z,15.00
2018-06-18T00:14:53.107Z,15.97
2018-06-18T00:17:20.889Z,14.13
2018-06-18T00:19:48.673Z,16.47
2018-06-18T00:22:16.905Z,15.03
2018-06-18T00:24:45.469Z,15.00
2018-06-18T00:27:13.441Z,15.30
2018-06-18T00:29:41.177Z,14.13
2018-06-18T00:32:09.227Z,15.03
2018-06-18T00:34:37.017Z,14.60
2018-06-18T00:37:05.064Z,13.40
2018-06-18T00:39:32.800Z,13.37
2018-06-18T00:42:00.570Z,5.77
2018-06-18T00:44:28.377Z,15.00
2018-06-18T00:46:56.128Z,16.23
2018-06-18T00:49:23.893Z,16.77
2018-06-18T00:51:51.972Z,14.60
2018-06-18T00:54:19.767Z,14.47
2018-06-18T00:56:47.517Z,13.63
2018-06-18T00:59:15.280Z,14.37
2018-06-18T01:01:43.069Z,13.40
2018-06-18T01:04:11.102Z,16.13
2018-06-18T01:06:38.865Z,6.60
2018-06-18T01:09:08.953Z,6.63
2018-06-18T01:11:36.564Z,14.80
2018-06-18T01:14:04.369Z,13.77
2018-06-18T01:16:32.117Z,14.70
2018-06-18T01:18:59.909Z,14.13
2018-06-18T01:21:27.673Z,6.93
2018-06-18T01:24:05.785Z,14.30
2018-06-18T01:26:33.546Z,9.03
2018-06-18T01:29:01.301Z,6.60
2018-06-18T01:31:29.085Z,7.00
2018-06-18T01:33:59.149Z,7.03
2018-06-18T01:36:26.921Z,14.57
2018-06-18T01:38:54.712Z,7.20
2018-06-18T01:41:22.324Z,14.93
2018-06-18T01:43:50.131Z,16.53
2018-06-18T01:46:17.917Z,6.53
2018-06-18T01:48:45.681Z,6.53
2018-06-18T01:51:13.457Z,15.90
2018-06-18T01:53:41.237Z,8.23
2018-06-18T01:56:09.009Z,7.30
2018-06-18T01:58:36.789Z,16.13
2018-06-18T02:01:04.573Z,7.67
2018-06-18T02:03:32.349Z,14.90
2018-06-18T02:06:00.192Z,15.47
2018-06-18T02:08:27.983Z,16.27
2018-06-18T02:10:55.753Z,16.97
2018-06-18T02:13:23.532Z,16.80
2018-06-18T02:15:51.329Z,16.13
2018-06-18T02:18:19.156Z,17.50
2018-06-18T02:20:46.998Z,15.43
2018-06-18T02:23:14.792Z,17.50
2018-06-18T02:25:42.597Z,17.20
2018-06-18T02:28:15.996Z,15.10
2018-06-18T02:30:49.318Z,16.13
2018-06-18T02:33:22.648Z,14.67
2018-06-18T02:35:56.001Z,15.90
2018-06-18T02:38:29.428Z,16.30
2018-06-18T02:40:57.212Z,8.77
2018-06-18T02:43:25.004Z,17.47
2018-06-18T02:45:52.829Z,15.93
2018-06-18T02:48:20.598Z,17.60
2018-06-18T02:50:49.433Z,9.90
2018-06-18T02:53:17.315Z,12.30
2018-06-18T02:55:46.889Z,9.17
2018-06-18T02:58:14.685Z,11.03
2018-06-18T03:00:42.449Z,18.83
2018-06-18T03:03:10.223Z,10.13
2018-06-18T03:05:38.017Z,8.27
2018-06-18T03:08:05.777Z,6.23
2018-06-18T03:10:33.765Z,5.50
2018-06-18T03:13:01.545Z,5.97
2018-06-18T03:15:29.292Z,6.33
2018-06-18T03:17:57.114Z,5.83
2018-06-18T03:20:30.538Z,15.13
2018-06-18T03:23:03.897Z,7.97
2018-06-18T03:25:37.196Z,18.60
2018-06-18T03:28:10.804Z,13.00
2018-06-18T03:30:38.677Z,8.27
2018-06-18T03:33:06.444Z,8.00
2018-06-18T03:35:34.233Z,9.33
2018-06-18T03:38:02.340Z,11.27
2018-06-18T03:40:30.409Z,9.43
2018-06-18T03:42:58.189Z,8.97
2018-06-18T03:45:28.276Z,10.27
2018-06-18T03:47:57.999Z,9.27
2018-06-18T03:50:25.812Z,6.80
2018-06-18T03:52:53.597Z,6.33
2018-06-18T03:55:22.847Z,5.20
2018-06-18T03:57:50.629Z,5.03
2018-06-18T04:00:18.645Z,5.23
2018-06-18T04:02:57.156Z,7.53
2018-06-18T04:05:30.412Z,6.90
2018-06-18T04:08:00.352Z,6.13
2018-06-18T04:10:36.996Z,5.30
2018-06-18T04:13:04.840Z,6.20
2018-06-18T04:15:32.610Z,6.33
2018-06-18T04:18:00.389Z,5.40
2018-06-18T04:20:31.048Z,6.33
2018-06-18T04:22:59.346Z,5.40
2018-06-18T04:25:27.113Z,16.73
2018-06-18T04:27:54.891Z,5.33
2018-06-18T04:30:22.723Z,4.97
2018-06-18T04:32:50.533Z,4.37
2018-06-18T04:35:18.286Z,13.80
2018-06-18T04:37:46.153Z,11.67
2018-06-18T04:40:13.869Z,12.90
2018-06-18T04:42:47.277Z,13.20
2018-06-18T04:45:20.456Z,14.93
2018-06-18T04:47:53.629Z,12.50
2018-06-18T04:50:27.077Z,5.67
2018-06-18T04:52:54.828Z,5.90
2018-06-18T04:55:22.589Z,7.27
2018-06-18T04:57:50.378Z,7.57
2018-06-18T05:00:29.342Z,6.73
2018-06-18T05:02:57.087Z,5.77
2018-06-18T05:05:24.877Z,5.63
2018-06-18T05:07:56.968Z,8.13
2018-06-18T05:10:26.609Z,8.47
2018-06-18T05:12:54.617Z,5.33
2018-06-18T05:15:25.358Z,6.27
2018-06-18T05:17:53.144Z,5.00
2018-06-18T05:20:20.937Z,4.40
2018-06-18T05:22:48.884Z,4.77
2018-06-18T05:25:16.650Z,6.10
2018-06-18T05:27:44.438Z,4.93
2018-06-18T05:30:16.554Z,5.70
2018-06-18T05:32:44.322Z,5.20
2018-06-18T05:35:12.653Z,5.73
2018-06-18T05:37:46.605Z,5.53
2018-06-18T05:40:14.391Z,6.50
2018-06-18T05:42:42.133Z,6.73
2018-06-18T05:45:10.045Z,5.00
2018-06-18T05:47:38.228Z,5.23
2018-06-18T05:50:06.038Z,5.70
2018-06-18T05:52:33.829Z,5.03
2018-06-18T05:55:01.810Z,4.67
2018-06-18T05:57:29.697Z,5.13
2018-06-18T05:59:57.452Z,4.23
2018-06-18T06:02:25.111Z,6.77
2018-06-18T06:04:52.872Z,4.87
2018-06-18T06:07:20.618Z,5.17
2018-06-18T06:09:48.422Z,4.83
2018-06-18T06:12:16.188Z,6.27
2018-06-18T06:14:43.974Z,4.70
2018-06-18T06:17:12.321Z,4.47
2018-06-18T06:19:40.101Z,4.77
2018-06-18T06:22:07.866Z,6.73
2018-06-18T06:24:35.617Z,6.13
2018-06-18T06:27:03.815Z,5.70
2018-06-18T06:29:31.632Z,8.07
2018-06-18T06:31:59.646Z,5.90
2018-06-18T06:34:27.389Z,7.37
2018-06-18T06:36:55.148Z,8.07
2018-06-18T06:39:22.800Z,6.50
2018-06-18T06:41:54.926Z,7.63
2018-06-18T06:44:22.777Z,9.67
2018-06-18T06:46:50.570Z,10.83
2018-06-18T06:49:18.358Z,9.07
2018-06-18T06:51:46.186Z,9.70
2018-06-18T06:54:13.952Z,9.50
2018-06-18T06:56:41.703Z,11.07
2018-06-18T06:59:09.489Z,7.50
2018-06-18T07:01:37.256Z,8.33
2018-06-18T07:04:05.398Z,18.57
2018-06-18T07:06:33.182Z,19.30
2018-06-18T07:09:00.950Z,10.17
2018-06-18T07:11:28.749Z,9.77
2018-06-18T07:13:56.512Z,18.87
2018-06-18T07:16:24.281Z,9.20
2018-06-18T07:18:51.917Z,10.33
2018-06-18T07:21:19.697Z,7.73
2018-06-18T07:23:47.445Z,8.67
2018-06-18T07:26:15.205Z,10.13
2018-06-18T07:28:42.976Z,9.57
2018-06-18T07:31:10.762Z,9.73
2018-06-18T07:33:38.524Z,8.27
2018-06-18T07:36:06.328Z,9.77
2018-06-18T07:38:34.115Z,9.07
2018-06-18T07:41:01.909Z,8.10
2018-06-18T07:43:29.682Z,10.17
2018-06-18T07:45:57.412Z,9.27
2018-06-18T07:48:25.205Z,7.03
2018-06-18T07:50:52.985Z,6.30
2018-06-18T07:53:22.691Z,6.13
2018-06-18T07:55:50.468Z,6.77
2018-06-18T07:58:18.229Z,6.40
2018-06-18T08:00:45.996Z,7.33
2018-06-18T08:03:13.761Z,8.93
2018-06-18T08:05:41.493Z,6.67
2018-06-18T08:08:09.237Z,6.50
2018-06-18T08:10:37.032Z,6.73
2018-06-18T08:13:04.782Z,6.30
2018-06-18T08:15:32.544Z,7.70
2018-06-18T08:18:00.333Z,6.70
2018-06-18T08:20:28.109Z,6.00
2018-06-18T08:22:55.845Z,6.23
2018-06-18T08:25:23.617Z,8.67
2018-06-18T08:27:51.381Z,7.43
2018-06-18T08:30:19.162Z,8.93
2018-06-18T08:32:46.930Z,7.27
2018-06-18T08:35:14.714Z,9.53
2018-06-18T08:37:42.476Z,6.77
2018-06-18T08:40:10.242Z,9.73
2018-06-18T08:42:38.013Z,6.93
2018-06-18T08:45:05.841Z,8.67
2018-06-18T08:47:33.574Z,7.07
2018-06-18T08:50:06.848Z,7.07
2018-06-18T08:52:40.158Z,7.07
2018-06-18T08:55:13.513Z,7.57
2018-06-18T08:57:46.749Z,7.63
2018-06-18T09:00:20.213Z,6.83
2018-06-18T09:02:48.400Z,7.57
2018-06-18T09:05:20.688Z,9.43
2018-06-18T09:07:53.393Z,7.50
2018-06-18T09:10:21.351Z,8.87
2018-06-18T09:12:49.157Z,6.67
2018-06-18T09:15:16.796Z,7.60
2018-06-18T09:17:44.597Z,8.10
2018-06-18T09:20:12.317Z,7.00
2018-06-18T09:22:40.073Z,9.73
2018-06-18T09:25:07.857Z,8.47
2018-06-18T09:27:35.598Z,8.30
2018-06-18T09:30:10.069Z,8.50
2018-06-18T09:32:38.081Z,10.77
2018-06-18T09:35:05.713Z,8.03
2018-06-18T09:37:33.500Z,8.53
2018-06-18T09:40:01.633Z,6.47
2018-06-18T09:42:29.284Z,7.33
2018-06-18T09:44:57.053Z,8.03
2018-06-18T09:47:24.815Z,7.83
2018-06-18T09:49:58.104Z,5.93
2018-06-18T09:52:31.377Z,6.97
2018-06-18T09:57:11.241Z,8.10
2018-06-18T09:59:44.702Z,7.17
2018-06-18T10:02:12.463Z,6.90
2018-06-18T10:04:41.093Z,8.17
2018-06-18T10:07:08.848Z,6.63
2018-06-18T10:09:36.608Z,5.70
2018-06-18T10:12:04.387Z,7.13
2018-06-18T10:14:32.179Z,6.30
2018-06-18T10:16:59.812Z,6.60
2018-06-18T10:19:27.616Z,4.70
2018-06-18T10:21:55.352Z,4.75
2018-06-18T10:24:23.179Z,5.67
2018-06-18T10:26:50.942Z,7.58
2018-06-18T10:29:18.677Z,6.15
2018-06-18T10:31:46.445Z,5.83
2018-06-18T10:34:19.767Z,4.75
2018-06-18T10:36:53.089Z,3.90
2018-06-18T10:39:26.841Z,5.87
2018-06-18T10:42:00.308Z,5.67
2018-06-18T10:44:28.058Z,3.60
2018-06-18T10:46:55.824Z,5.10
2018-06-18T10:49:23.576Z,5.65
2018-06-18T10:51:51.325Z,5.75
2018-06-18T10:54:19.116Z,4.17
2018-06-18T10:56:46.891Z,4.03
2018-06-18T10:59:14.650Z,3.83
2018-06-18T11:01:42.645Z,4.55
2018-06-18T11:04:15.925Z,4.40
2018-06-18T11:06:43.701Z,4.67
2018-06-18T11:09:11.653Z,4.72
2018-06-18T11:11:39.445Z,4.67
2018-06-18T11:14:07.205Z,4.20
2018-06-18T11:16:35.138Z,3.40
2018-06-18T11:19:08.203Z,4.92
2018-06-18T11:21:41.476Z,5.45
2018-06-18T11:24:14.679Z,5.78
2018-06-18T11:26:47.929Z,5.70
2018-06-18T11:29:15.655Z,5.80
2018-06-18T11:31:43.461Z,6.92
2018-06-18T11:34:11.212Z,6.10
2018-06-18T11:36:39.029Z,7.17
2018-06-18T11:39:08.027Z,4.87
2018-06-18T11:41:35.787Z,6.03
2018-06-18T11:44:03.832Z,7.90
2018-06-18T11:46:31.608Z,4.65
2018-06-18T11:48:59.349Z,5.08
2018-06-18T11:51:27.126Z,4.95
2018-06-18T11:53:54.901Z,6.90
2018-06-18T11:56:22.657Z,3.22
2018-06-18T11:58:55.985Z,7.00
2018-06-18T12:01:29.491Z,5.97
2018-06-18T12:04:02.913Z,4.53
2018-06-18T12:06:36.300Z,6.67
2018-06-18T12:09:12.324Z,4.57
2018-06-18T12:11:40.313Z,5.80
2018-06-18T12:14:08.081Z,3.30
2018-06-18T12:16:36.630Z,3.60
2018-06-18T12:19:05.112Z,5.37
2018-06-18T12:21:33.181Z,4.50
2018-06-18T12:24:00.970Z,4.97
2018-06-18T12:26:29.172Z,4.00
2018-06-18T12:28:56.954Z,5.03
2018-06-18T12:31:24.713Z,5.17
2018-06-18T12:33:52.671Z,5.37
2018-06-18T12:36:20.521Z,5.30
2018-06-18T12:38:48.246Z,6.27
2018-06-18T12:41:17.685Z,5.90
2018-06-18T12:43:47.337Z,6.53
2018-06-18T12:46:20.585Z,6.20
2018-06-18T12:48:54.928Z,5.23
2018-06-18T12:51:28.157Z,5.70
2018-06-18T12:54:01.429Z,5.27
2018-06-18T12:56:34.689Z,5.53
2018-06-18T12:59:02.500Z,5.60
2018-06-18T13:01:32.584Z,4.13
2018-06-18T13:04:01.864Z,6.77
2018-06-18T13:06:29.644Z,3.97
2018-06-18T13:08:57.404Z,4.03
2018-06-18T13:11:25.177Z,5.57
2018-06-18T13:13:52.937Z,5.10
2018-06-18T13:16:21.285Z,4.97
2018-06-18T13:18:49.094Z,5.80
2018-06-18T13:21:16.893Z,3.83
2018-06-18T13:23:44.648Z,6.63
2018-06-18T13:26:12.421Z,5.33
2018-06-18T13:28:40.189Z,5.07
2018-06-18T13:31:08.041Z,5.33
2018-06-18T13:33:35.813Z,4.57
2018-06-18T13:36:03.641Z,3.60
2018-06-18T13:38:37.002Z,4.10
2018-06-18T13:41:10.437Z,4.10
2018-06-18T13:43:43.694Z,3.77
2018-06-18T13:46:16.925Z,4.30
2018-06-18T13:48:59.444Z,5.63
2018-06-18T13:51:27.641Z,4.20
2018-06-18T13:53:55.437Z,3.37
2018-06-18T13:56:23.516Z,3.70
2018-06-18T13:58:51.704Z,4.80
2018-06-18T14:01:19.453Z,3.47
2018-06-18T14:03:47.220Z,2.73
2018-06-18T14:06:14.998Z,2.87
2018-06-18T14:08:42.781Z,5.07
2018-06-18T14:11:10.581Z,3.37
2018-06-18T14:13:38.368Z,2.80
2018-06-18T14:16:06.156Z,3.00
2018-06-18T14:18:33.979Z,5.97
2018-06-18T14:21:01.770Z,3.17
2018-06-18T14:23:29.562Z,2.77
2018-06-18T14:25:57.420Z,4.53
2018-06-18T14:28:25.204Z,3.50
2018-06-18T14:30:58.489Z,3.80
2018-06-18T14:33:31.733Z,4.37
2018-06-18T14:36:05.023Z,4.53
2018-06-18T14:38:38.267Z,2.90
2018-06-18T14:41:06.372Z,5.30
2018-06-18T14:43:34.173Z,3.43
2018-06-18T14:46:01.879Z,3.87
2018-06-18T14:48:29.690Z,5.43
2018-06-18T14:50:57.409Z,4.57
2018-06-18T14:53:25.197Z,4.33
2018-06-18T14:56:05.665Z,4.67
2018-06-18T14:58:33.288Z,4.27
2018-06-18T15:01:01.029Z,2.90
2018-06-18T15:03:28.820Z,5.03
2018-06-18T15:05:56.597Z,3.70
2018-06-18T15:08:24.428Z,4.40
2018-06-18T15:10:53.339Z,5.13
2018-06-18T15:13:21.128Z,4.43
2018-06-18T15:15:54.502Z,4.93
2018-06-18T15:18:22.256Z,4.37
2018-06-18T15:20:50.569Z,6.47
2018-06-18T15:23:18.345Z,5.03
2018-06-18T15:25:48.058Z,5.03
2018-06-18T15:28:15.841Z,3.33
2018-06-18T15:30:43.593Z,4.73
2018-06-18T15:33:11.365Z,3.70
2018-06-18T15:35:39.123Z,3.33
2018-06-18T15:38:06.920Z,5.27
2018-06-18T15:40:34.725Z,4.27
2018-06-18T15:43:02.485Z,2.90
2018-06-18T15:45:30.327Z,3.23
2018-06-18T15:47:58.136Z,4.57
2018-06-18T15:50:25.938Z,3.20
2018-06-18T15:52:53.590Z,3.37
2018-06-18T15:55:21.357Z,3.00
2018-06-18T15:57:49.097Z,3.63
2018-06-18T16:00:16.936Z,4.50
2018-06-18T16:02:44.796Z,3.87
2018-06-18T16:05:12.580Z,4.17
2018-06-18T16:07:40.352Z,3.07
2018-06-18T16:10:08.117Z,3.77
2018-06-18T16:12:35.900Z,3.67
2018-06-18T16:15:03.722Z,3.40
2018-06-18T16:17:31.476Z,2.50
2018-06-18T16:19:59.253Z,3.97
2018-06-18T16:22:27.016Z,3.13
2018-06-18T16:24:54.768Z,3.20
2018-06-18T16:27:22.540Z,2.83
2018-06-18T16:29:50.333Z,3.13
2018-06-18T16:32:18.133Z,2.93
2018-06-18T16:34:45.881Z,3.03
2018-06-18T16:37:13.717Z,4.00
2018-06-18T16:39:41.503Z,3.50
2018-06-18T16:42:09.272Z,2.93
2018-06-18T16:44:36.981Z,3.10
2018-06-18T16:47:04.749Z,3.33
2018-06-18T16:49:32.511Z,2.60
2018-06-18T16:52:00.292Z,3.40
2018-06-18T16:54:28.055Z,6.33
2018-06-18T16:56:55.900Z,3.07
2018-06-18T16:59:23.659Z,3.53
2018-06-18T17:01:51.413Z,3.53
2018-06-18T17:04:19.028Z,6.13
2018-06-18T17:06:46.932Z,3.97
2018-06-18T17:09:14.665Z,2.87
2018-06-18T17:11:42.511Z,4.30
2018-06-18T17:14:10.262Z,2.80
2018-06-18T17:16:38.073Z,4.47
2018-06-18T17:19:05.840Z,3.93
2018-06-18T17:21:33.636Z,4.80
2018-06-18T17:24:01.441Z,4.00
2018-06-18T17:26:29.221Z,3.37
2018-06-18T17:28:56.988Z,4.07
2018-06-18T17:31:24.925Z,2.90
2018-06-18T17:33:52.708Z,4.70
2018-06-18T17:36:20.480Z,3.90
2018-06-18T17:38:48.257Z,5.37
2018-06-18T17:41:16.031Z,2.83
2018-06-18T17:43:43.785Z,2.90
2018-06-18T17:46:11.560Z,5.73
2018-06-18T17:48:39.320Z,3.30
2018-06-18T17:51:07.080Z,3.40
2018-06-18T17:53:34.840Z,3.87
2018-06-18T17:56:02.642Z,5.07
2018-06-18T17:58:30.412Z,5.90
2018-06-18T18:00:58.161Z,4.63
2018-06-18T18:03:25.969Z,4.23
2018-06-18T18:05:53.756Z,3.33
2018-06-18T18:08:21.537Z,4.20
2018-06-18T18:10:49.370Z,5.30
2018-06-18T18:13:17.303Z,5.53
2018-06-18T18:15:45.029Z,4.80
2018-06-18T18:18:12.804Z,4.30
2018-06-18T18:20:40.681Z,3.40
2018-06-18T18:23:08.437Z,3.70
2018-06-18T18:25:36.204Z,5.27
2018-06-18T18:28:04.100Z,3.93
2018-06-18T18:30:31.868Z,3.63
2018-06-18T18:32:59.701Z,3.20
2018-06-18T18:35:27.538Z,4.50
2018-06-18T18:37:55.695Z,4.67
2018-06-18T18:40:23.501Z,4.40
2018-06-18T18:42:51.305Z,5.70
2018-06-18T18:45:19.058Z,5.07
2018-06-18T18:47:46.855Z,3.57
2018-06-18T19:04:42.593Z,6.63
2018-06-18T19:07:10.441Z,6.67
2018-06-18T19:09:45.546Z,6.43
2018-06-18T19:12:13.721Z,4.93
2018-06-18T19:14:41.701Z,4.63
2018-06-18T19:17:09.529Z,5.30
2018-06-18T19:19:42.400Z,6.50
2018-06-18T19:22:10.981Z,5.23
2018-06-18T19:24:38.756Z,5.87
2018-06-18T19:27:06.710Z,6.70
2018-06-18T19:29:34.470Z,4.97
2018-06-18T19:32:02.264Z,5.93
2018-06-18T19:34:30.265Z,4.20
2018-06-18T19:36:57.876Z,5.07
2018-06-18T19:39:30.289Z,5.17
2018-06-18T19:41:58.040Z,4.80
2018-06-18T19:44:25.921Z,5.13
2018-06-18T19:47:15.252Z,5.43
2018-06-18T19:49:43.073Z,4.83
2018-06-18T19:52:29.105Z,5.07
2018-06-18T19:57:49.982Z,4.50
2018-06-18T20:00:17.845Z,5.17
2018-06-18T20:02:45.621Z,4.00
2018-06-18T20:05:14.113Z,5.57
2018-06-18T20:39:12.925Z,3.83
2018-06-18T20:41:41.911Z,7.60
2018-06-18T20:44:14.241Z,4.20
2018-06-18T20:46:54.246Z,6.27
2018-06-18T20:49:22.252Z,6.40
2018-06-18T20:51:50.026Z,4.77
2018-06-18T20:57:20.397Z,7.10
2018-06-18T20:59:48.160Z,4.03
2018-06-18T21:17:00.360Z,7.40
2018-06-18T21:19:28.157Z,4.97
2018-06-18T21:21:55.978Z,4.30
2018-06-18T21:24:23.787Z,5.47
2018-06-18T21:26:51.596Z,5.80
2018-06-18T21:29:19.369Z,4.97
2018-06-18T21:31:47.369Z,4.13
2018-06-18T21:34:15.146Z,14.67
2018-06-18T21:36:42.933Z,5.20
2018-06-18T21:39:11.404Z,5.77
2018-06-18T21:41:39.350Z,12.70
2018-06-18T21:44:08.724Z,6.10
2018-06-18T21:46:36.585Z,3.90
2018-06-18T21:49:04.441Z,4.47
2018-06-18T21:51:32.232Z,5.07
2018-06-18T21:53:59.917Z,4.47
2018-06-18T21:56:27.717Z,5.20
2018-06-18T21:58:55.541Z,4.57
2018-06-18T22:01:34.605Z,6.70
2018-06-18T22:04:02.394Z,5.73
2018-06-18T22:06:30.209Z,5.43
2018-06-18T22:08:58.017Z,14.67
2018-06-18T22:11:26.060Z,16.40
2018-06-18T22:13:53.841Z,3.93
2018-06-18T22:16:21.633Z,6.27
2018-06-18T22:18:49.467Z,4.83
2018-06-18T22:21:17.275Z,5.47
2018-06-18T22:23:45.109Z,3.70
2018-06-18T22:26:13.028Z,4.97
2018-06-18T22:28:42.891Z,8.27
2018-06-18T22:31:10.906Z,4.30
2018-06-18T22:33:38.725Z,4.77
2018-06-18T22:36:06.536Z,5.40
2018-06-18T22:38:34.349Z,5.50
2018-06-18T22:41:02.157Z,5.13
2018-06-18T22:43:30.019Z,7.60
2018-06-18T22:45:57.799Z,4.53
2018-06-18T22:48:25.460Z,5.87
2018-06-18T22:50:53.262Z,4.97
2018-06-18T22:53:21.058Z,5.70
2018-06-18T22:55:48.905Z,8.17
2018-06-18T22:58:16.694Z,10.37
2018-06-18T23:00:44.469Z,12.47
2018-06-18T23:03:12.333Z,7.83
2018-06-18T23:05:40.197Z,4.70
2018-06-18T23:08:07.984Z,5.80
2018-06-18T23:10:35.636Z,6.20
2018-06-18T23:13:03.445Z,6.37
2018-06-18T23:15:31.411Z,5.07
2018-06-18T23:17:59.241Z,5.03
2018-06-18T23:20:27.058Z,5.63
2018-06-18T23:22:54.885Z,5.37
2018-06-18T23:25:22.540Z,4.07
2018-06-18T23:27:50.572Z,4.40
2018-06-18T23:30:18.438Z,6.30
2018-06-18T23:32:46.242Z,4.67
2018-06-18T23:35:13.900Z,4.30
2018-06-18T23:37:41.669Z,16.57
2018-06-18T23:40:09.485Z,5.17
2018-06-18T23:42:37.297Z,5.30
2018-06-18T23:45:05.552Z,10.63
2018-06-18T23:47:33.389Z,4.40
2018-06-18T23:50:01.173Z,9.13
2018-06-18T23:52:29.052Z,4.83
2018-06-18T23:54:56.820Z,5.73
2018-06-18T23:57:24.570Z,5.67
2018-06-18T23:59:52.336Z,5.23
